sensor_id;sensor_type;location;lat;lon;timestamp;pressure;altitude;pressure_sealevel;temperature;humidity
22283;BME280;11310;51.528;21.204;2024-02-21T00:02:01;100482.25;;;5.50;100.00
22283;BME280;11310;51.528;21.204;2024-02-21T00:04:30;100477.94;;;5.49;100.00
22283;BME280;11310;51.528;21.204;2024-02-21T00:06:59;100484.00;;;5.49;100.00
22283;BME280;11310;51.528;21.204;2024-02-21T00:09:27;100479.72;;;5.47;100.00
22283;BME280;11310;51.528;21.204;2024-02-21T00:11:56;100472.81;;;5.44;100.00
22283;BME280;11310;51.528;21.204;2024-02-21T00:14:26;100474.56;;;5.44;100.00
22283;BME280;11310;51.528;21.204;2024-02-21T00:16:54;100481.50;;;5.43;100.00
22283;BME280;11310;51.528;21.204;2024-02-21T00:19:26;100477.13;;;5.45;100.00
22283;BME280;11310;51.528;21.204;2024-02-21T00:21:58;100482.34;;;5.44;100.00
22283;BME280;11310;51.528;21.204;2024-02-21T00:24:34;100483.19;;;5.46;100.00
22283;BME280;11310;51.528;21.204;2024-02-21T00:27:03;100475.38;;;5.46;100.00
22283;BME280;11310;51.528;21.204;2024-02-21T00:29:32;100469.34;;;5.45;100.00
22283;BME280;11310;51.528;21.204;2024-02-21T00:32:01;100470.13;;;5.49;100.00
22283;BME280;11310;51.528;21.204;2024-02-21T00:34:31;100471.91;;;5.47;100.00
22283;BME280;11310;51.528;21.204;2024-02-21T00:37:02;100480.56;;;5.47;100.00
22283;BME280;11310;51.528;21.204;2024-02-21T00:39:32;100479.72;;;5.45;100.00
22283;BME280;11310;51.528;21.204;2024-02-21T00:42:01;100475.44;;;5.43;100.00
22283;BME280;11310;51.528;21.204;2024-02-21T00:44:29;100467.69;;;5.40;100.00
22283;BME280;11310;51.528;21.204;2024-02-21T00:46:58;100464.34;;;5.32;100.00
22283;BME280;11310;51.528;21.204;2024-02-21T00:49:26;100463.53;;;5.30;100.00
22283;BME280;11310;51.528;21.204;2024-02-21T00:51:57;100468.78;;;5.27;100.00
22283;BME280;11310;51.528;21.204;2024-02-21T00:54:26;100465.38;;;5.25;100.00
22283;BME280;11310;51.528;21.204;2024-02-21T00:57:13;100463.66;;;5.24;100.00
22283;BME280;11310;51.528;21.204;2024-02-21T00:59:42;100458.50;;;5.21;100.00
22283;BME280;11310;51.528;21.204;2024-02-21T01:02:12;100460.25;;;5.19;100.00
22283;BME280;11310;51.528;21.204;2024-02-21T01:04:40;100461.16;;;5.16;100.00
22283;BME280;11310;51.528;21.204;2024-02-21T01:07:11;100459.56;;;5.11;100.00
22283;BME280;11310;51.528;21.204;2024-02-21T01:09:40;100453.50;;;5.09;100.00
22283;BME280;11310;51.528;21.204;2024-02-21T01:12:10;100450.88;;;5.10;100.00
22283;BME280;11310;51.528;21.204;2024-02-21T01:14:41;100444.00;;;5.08;100.00
22283;BME280;11310;51.528;21.204;2024-02-21T01:17:10;100445.72;;;5.07;100.00
22283;BME280;11310;51.528;21.204;2024-02-21T01:19:38;100446.59;;;5.08;100.00
22283;BME280;11310;51.528;21.204;2024-02-21T01:22:07;100435.38;;;5.06;100.00
22283;BME280;11310;51.528;21.204;2024-02-21T01:24:38;100435.31;;;5.09;100.00
22283;BME280;11310;51.528;21.204;2024-02-21T01:27:06;100439.59;;;5.11;100.00
22283;BME280;11310;51.528;21.204;2024-02-21T01:29:36;100432.66;;;5.12;100.00
22283;BME280;11310;51.528;21.204;2024-02-21T01:32:05;100435.25;;;5.13;100.00
22283;BME280;11310;51.528;21.204;2024-02-21T01:34:33;100436.06;;;5.14;100.00
22283;BME280;11310;51.528;21.204;2024-02-21T01:37:02;100430.84;;;5.15;100.00
22283;BME280;11310;51.528;21.204;2024-02-21T01:39:34;100432.53;;;5.18;100.00
22283;BME280;11310;51.528;21.204;2024-02-21T01:42:04;100429.03;;;5.19;100.00
22283;BME280;11310;51.528;21.204;2024-02-21T01:44:36;100425.59;;;5.20;100.00
22283;BME280;11310;51.528;21.204;2024-02-21T01:47:07;100426.41;;;5.22;100.00
22283;BME280;11310;51.528;21.204;2024-02-21T01:49:37;100422.06;;;5.24;100.00
22283;BME280;11310;51.528;21.204;2024-02-21T01:52:05;100420.25;;;5.26;100.00
22283;BME280;11310;51.528;21.204;2024-02-21T01:54:34;100418.53;;;5.26;100.00
22283;BME280;11310;51.528;21.204;2024-02-21T01:57:05;100421.16;;;5.25;100.00
22283;BME280;11310;51.528;21.204;2024-02-21T01:59:33;100414.28;;;5.22;100.00
22283;BME280;11310;51.528;21.204;2024-02-21T02:02:03;100417.72;;;5.23;100.00
22283;BME280;11310;51.528;21.204;2024-02-21T02:04:31;100420.38;;;5.20;100.00
22283;BME280;11310;51.528;21.204;2024-02-21T02:07:02;100413.41;;;5.22;100.00
22283;BME280;11310;51.528;21.204;2024-02-21T02:09:33;100413.41;;;5.20;100.00
22283;BME280;11310;51.528;21.204;2024-02-21T02:12:04;100416.03;;;5.19;100.00
22283;BME280;11310;51.528;21.204;2024-02-21T02:14:33;100418.72;;;5.16;100.00
22283;BME280;11310;51.528;21.204;2024-02-21T02:17:01;100416.13;;;5.16;100.00
22283;BME280;11310;51.528;21.204;2024-02-21T02:19:31;100411.84;;;5.12;100.00
22283;BME280;11310;51.528;21.204;2024-02-21T02:22:07;100411.84;;;5.12;100.00
22283;BME280;11310;51.528;21.204;2024-02-21T02:24:39;100413.59;;;5.10;100.00
22283;BME280;11310;51.528;21.204;2024-02-21T02:27:07;100404.88;;;5.14;100.00
22283;BME280;11310;51.528;21.204;2024-02-21T02:29:35;100417.00;;;5.15;100.00
22283;BME280;11310;51.528;21.204;2024-02-21T02:32:05;100404.81;;;5.17;100.00
22283;BME280;11310;51.528;21.204;2024-02-21T02:34:34;100401.31;;;5.19;100.00
22283;BME280;11310;51.528;21.204;2024-02-21T02:37:03;100408.19;;;5.22;100.00
22283;BME280;11310;51.528;21.204;2024-02-21T02:39:32;100399.47;;;5.24;100.00
22283;BME280;11310;51.528;21.204;2024-02-21T02:42:03;100402.03;;;5.27;100.00
22283;BME280;11310;51.528;21.204;2024-02-21T02:44:35;100402.03;;;5.27;100.00
22283;BME280;11310;51.528;21.204;2024-02-21T02:47:04;100396.75;;;5.30;100.00
22283;BME280;11310;51.528;21.204;2024-02-21T02:49:32;100405.44;;;5.29;100.00
22283;BME280;11310;51.528;21.204;2024-02-21T02:52:01;100399.41;;;5.29;100.00
22283;BME280;11310;51.528;21.204;2024-02-21T02:54:29;100404.56;;;5.30;100.00
22283;BME280;11310;51.528;21.204;2024-02-21T02:56:58;100401.13;;;5.30;100.00
22283;BME280;11310;51.528;21.204;2024-02-21T02:59:28;100406.38;;;5.27;100.00
22283;BME280;11310;51.528;21.204;2024-02-21T03:01:56;100398.56;;;5.27;100.00
22283;BME280;11310;51.528;21.204;2024-02-21T03:04:25;100398.59;;;5.25;100.00
22283;BME280;11310;51.528;21.204;2024-02-21T03:06:54;100403.78;;;5.25;100.00
22283;BME280;11310;51.528;21.204;2024-02-21T03:09:22;100405.53;;;5.26;100.00
22283;BME280;11310;51.528;21.204;2024-02-21T03:11:51;100405.53;;;5.26;100.00
22283;BME280;11310;51.528;21.204;2024-02-21T03:14:24;100405.56;;;5.25;100.00
22283;BME280;11310;51.528;21.204;2024-02-21T03:16:54;100403.75;;;5.28;100.00
22283;BME280;11310;51.528;21.204;2024-02-21T03:19:22;100408.13;;;5.26;100.00
22283;BME280;11310;51.528;21.204;2024-02-21T03:21:51;100405.53;;;5.26;100.00
22283;BME280;11310;51.528;21.204;2024-02-21T03:24:20;100402.03;;;5.27;100.00
22283;BME280;11310;51.528;21.204;2024-02-21T03:26:48;100400.28;;;5.28;100.00
22283;BME280;11310;51.528;21.204;2024-02-21T03:29:17;100408.03;;;5.31;100.00
22283;BME280;11310;51.528;21.204;2024-02-21T03:31:46;100391.50;;;5.33;100.00
22283;BME280;11310;51.528;21.204;2024-02-21T03:34:16;100394.09;;;5.35;100.00
22283;BME280;11310;51.528;21.204;2024-02-21T03:36:44;100394.09;;;5.35;100.00
22283;BME280;11310;51.528;21.204;2024-02-21T03:39:16;100395.78;;;5.36;100.00
22283;BME280;11310;51.528;21.204;2024-02-21T03:41:44;100387.16;;;5.35;100.00
22283;BME280;11310;51.528;21.204;2024-02-21T03:44:12;100388.88;;;5.35;100.00
22283;BME280;11310;51.528;21.204;2024-02-21T03:46:41;100393.25;;;5.33;100.00
22283;BME280;11310;51.528;21.204;2024-02-21T03:49:09;100395.84;;;5.33;100.00
22283;BME280;11310;51.528;21.204;2024-02-21T03:51:41;100397.59;;;5.32;100.00
22283;BME280;11310;51.528;21.204;2024-02-21T03:54:10;100392.38;;;5.34;100.00
22283;BME280;11310;51.528;21.204;2024-02-21T03:56:44;100394.94;;;5.35;100.00
22283;BME280;11310;51.528;21.204;2024-02-21T03:59:15;100394.94;;;5.35;100.00
22283;BME280;11310;51.528;21.204;2024-02-21T04:01:44;100387.09;;;5.37;100.00
22283;BME280;11310;51.528;21.204;2024-02-21T04:04:12;100383.66;;;5.36;100.00
22283;BME280;11310;51.528;21.204;2024-02-21T04:06:47;100386.22;;;5.38;100.00
22283;BME280;11310;51.528;21.204;2024-02-21T04:09:16;100394.03;;;5.38;100.00
22283;BME280;11310;51.528;21.204;2024-02-21T04:11:45;100394.84;;;5.40;100.00
22283;BME280;11310;51.528;21.204;2024-02-21T04:14:13;100390.53;;;5.39;100.00
22283;BME280;11310;51.528;21.204;2024-02-21T04:16:42;100387.91;;;5.40;100.00
22283;BME280;11310;51.528;21.204;2024-02-21T04:19:10;100390.47;;;5.42;100.00
22283;BME280;11310;51.528;21.204;2024-02-21T04:21:39;100392.19;;;5.43;100.00
22283;BME280;11310;51.528;21.204;2024-02-21T04:24:09;100387.00;;;5.43;100.00
22283;BME280;11310;51.528;21.204;2024-02-21T04:26:37;100388.72;;;5.44;100.00
22283;BME280;11310;51.528;21.204;2024-02-21T04:29:06;100375.66;;;5.45;100.00
22283;BME280;11310;51.528;21.204;2024-02-21T04:31:35;100384.31;;;5.46;100.00
22283;BME280;11310;51.528;21.204;2024-02-21T04:34:03;100380.88;;;5.45;100.00
22283;BME280;11310;51.528;21.204;2024-02-21T04:36:31;100382.63;;;5.43;100.00
22283;BME280;11310;51.528;21.204;2024-02-21T04:39:00;100370.53;;;5.42;100.00
22283;BME280;11310;51.528;21.204;2024-02-21T04:41:30;100374.81;;;5.45;100.00
22283;BME280;11310;51.528;21.204;2024-02-21T04:43:58;100381.72;;;5.46;100.00
22283;BME280;11310;51.528;21.204;2024-02-21T04:46:27;100378.25;;;5.47;100.00
22283;BME280;11310;51.528;21.204;2024-02-21T04:48:55;100374.75;;;5.48;100.00
22283;BME280;11310;51.528;21.204;2024-02-21T04:51:24;100377.34;;;5.48;100.00
22283;BME280;11310;51.528;21.204;2024-02-21T04:53:53;100373.84;;;5.50;100.00
22283;BME280;11310;51.528;21.204;2024-02-21T04:56:22;100378.16;;;5.50;100.00
22283;BME280;11310;51.528;21.204;2024-02-21T04:58:51;100367.78;;;5.48;100.00
22283;BME280;11310;51.528;21.204;2024-02-21T05:01:23;100376.41;;;5.52;100.00
22283;BME280;11310;51.528;21.204;2024-02-21T05:03:52;100375.50;;;5.53;100.00
22283;BME280;11310;51.528;21.204;2024-02-21T05:06:20;100370.31;;;5.53;100.00
22283;BME280;11310;51.528;21.204;2024-02-21T05:08:54;100372.03;;;5.54;100.00
22283;BME280;11310;51.528;21.204;2024-02-21T05:11:25;100379.81;;;5.54;100.00
22283;BME280;11310;51.528;21.204;2024-02-21T05:13:56;100371.22;;;5.52;100.00
22283;BME280;11310;51.528;21.204;2024-02-21T05:16:25;100360.84;;;5.49;100.00
22283;BME280;11310;51.528;21.204;2024-02-21T05:18:54;100366.91;;;5.49;100.00
22283;BME280;11310;51.528;21.204;2024-02-21T05:21:23;100367.75;;;5.50;100.00
22283;BME280;11310;51.528;21.204;2024-02-21T05:23:52;100367.75;;;5.50;100.00
22283;BME280;11310;51.528;21.204;2024-02-21T05:26:21;100369.56;;;5.48;100.00
22283;BME280;11310;51.528;21.204;2024-02-21T05:28:50;100359.97;;;5.48;100.00
22283;BME280;11310;51.528;21.204;2024-02-21T05:31:20;100365.25;;;5.47;100.00
22283;BME280;11310;51.528;21.204;2024-02-21T05:33:50;100366.09;;;5.46;100.00
22283;BME280;11310;51.528;21.204;2024-02-21T05:36:21;100368.72;;;5.46;100.00
22283;BME280;11310;51.528;21.204;2024-02-21T05:38:51;100373.09;;;5.44;100.00
22283;BME280;11310;51.528;21.204;2024-02-21T05:41:20;100359.19;;;5.45;100.00
22283;BME280;11310;51.528;21.204;2024-02-21T05:43:51;100364.34;;;5.48;100.00
22283;BME280;11310;51.528;21.204;2024-02-21T05:46:21;100371.25;;;5.49;100.00
22283;BME280;11310;51.528;21.204;2024-02-21T05:48:51;100363.44;;;5.49;100.00
22283;BME280;11310;51.528;21.204;2024-02-21T05:51:20;100366.00;;;5.52;100.00
22283;BME280;11310;51.528;21.204;2024-02-21T05:53:49;100361.66;;;5.51;100.00
22283;BME280;11310;51.528;21.204;2024-02-21T05:56:21;100372.03;;;5.54;100.00
22283;BME280;11310;51.528;21.204;2024-02-21T05:58:50;100372.88;;;5.56;100.00
22283;BME280;11310;51.528;21.204;2024-02-21T06:01:20;100363.28;;;5.56;100.00
22283;BME280;11310;51.528;21.204;2024-02-21T06:03:50;100364.16;;;5.57;100.00
22283;BME280;11310;51.528;21.204;2024-02-21T06:06:20;100367.56;;;5.59;100.00
22283;BME280;11310;51.528;21.204;2024-02-21T06:08:52;100366.75;;;5.58;100.00
22283;BME280;11310;51.528;21.204;2024-02-21T06:11:20;100372.75;;;5.60;100.00
22283;BME280;11310;51.528;21.204;2024-02-21T06:13:49;100364.06;;;5.60;100.00
22283;BME280;11310;51.528;21.204;2024-02-21T06:16:18;100360.56;;;5.62;100.00
22283;BME280;11310;51.528;21.204;2024-02-21T06:18:48;100365.72;;;5.64;100.00
22283;BME280;11310;51.528;21.204;2024-02-21T06:21:18;100360.53;;;5.64;100.00
22283;BME280;11310;51.528;21.204;2024-02-21T06:23:49;100367.34;;;5.69;100.00
22283;BME280;11310;51.528;21.204;2024-02-21T06:26:19;100365.63;;;5.70;100.00
22283;BME280;11310;51.528;21.204;2024-02-21T06:28:50;100362.03;;;5.74;100.00
22283;BME280;11310;51.528;21.204;2024-02-21T06:31:20;100364.66;;;5.74;100.00
22283;BME280;11310;51.528;21.204;2024-02-21T06:33:50;100358.50;;;5.78;100.00
22283;BME280;11310;51.528;21.204;2024-02-21T06:36:19;100361.97;;;5.78;100.00
22283;BME280;11310;51.528;21.204;2024-02-21T06:38:51;100366.28;;;5.79;100.00
22283;BME280;11310;51.528;21.204;2024-02-21T06:41:25;100356.72;;;5.80;100.00
22283;BME280;11310;51.528;21.204;2024-02-21T06:43:58;100366.22;;;5.84;100.00
22283;BME280;11310;51.528;21.204;2024-02-21T06:46:29;100356.63;;;5.86;100.00
22283;BME280;11310;51.528;21.204;2024-02-21T06:49:03;100359.19;;;5.87;100.00
22283;BME280;11310;51.528;21.204;2024-02-21T06:51:35;100364.28;;;5.92;100.00
22283;BME280;11310;51.528;21.204;2024-02-21T06:54:04;100360.75;;;5.94;100.00
22283;BME280;11310;51.528;21.204;2024-02-21T06:56:37;100366.78;;;5.98;100.00
22283;BME280;11310;51.528;21.204;2024-02-21T06:59:06;100362.38;;;6.00;100.00
22283;BME280;11310;51.528;21.204;2024-02-21T07:01:34;100363.06;;;6.08;100.00
22283;BME280;11310;51.528;21.204;2024-02-21T07:04:06;100360.44;;;6.09;100.00
22283;BME280;11310;51.528;21.204;2024-02-21T07:06:35;100364.63;;;6.15;100.00
22283;BME280;11310;51.528;21.204;2024-02-21T07:09:05;100364.56;;;6.18;100.00
22283;BME280;11310;51.528;21.204;2024-02-21T07:11:34;100365.44;;;6.18;100.00
22283;BME280;11310;51.528;21.204;2024-02-21T07:14:03;100360.13;;;6.21;100.00
22283;BME280;11310;51.528;21.204;2024-02-21T07:16:34;100356.56;;;6.25;100.00
22283;BME280;11310;51.528;21.204;2024-02-21T07:19:04;100338.34;;;6.25;100.00
22283;BME280;11310;51.528;21.204;2024-02-21T07:21:33;100354.47;;;6.41;100.00
22283;BME280;11310;51.528;21.204;2024-02-21T07:24:02;100353.38;;;6.49;100.00
22283;BME280;11310;51.528;21.204;2024-02-21T07:26:34;100355.75;;;6.58;100.00
22283;BME280;11310;51.528;21.204;2024-02-21T07:29:03;100351.19;;;6.68;100.00
22283;BME280;11310;51.528;21.204;2024-02-21T07:31:38;100351.03;;;6.74;100.00
22283;BME280;11310;51.528;21.204;2024-02-21T07:34:09;100340.53;;;6.77;100.00
22283;BME280;11310;51.528;21.204;2024-02-21T07:36:38;100345.59;;;6.81;100.00
22283;BME280;11310;51.528;21.204;2024-02-21T07:39:09;100342.09;;;6.84;100.00
22283;BME280;11310;51.528;21.204;2024-02-21T07:41:39;100342.22;;;6.78;100.00
22283;BME280;11310;51.528;21.204;2024-02-21T07:44:12;100342.22;;;6.78;100.00
22283;BME280;11310;51.528;21.204;2024-02-21T07:46:41;100342.34;;;6.75;100.00
22283;BME280;11310;51.528;21.204;2024-02-21T07:49:14;100346.66;;;6.76;100.00
22283;BME280;11310;51.528;21.204;2024-02-21T07:51:43;100346.53;;;6.79;100.00
22283;BME280;11310;51.528;21.204;2024-02-21T07:54:12;100342.09;;;6.84;100.00
22283;BME280;11310;51.528;21.204;2024-02-21T07:56:44;100341.09;;;6.88;100.00
22283;BME280;11310;51.528;21.204;2024-02-21T07:59:14;100337.50;;;6.92;100.00
22283;BME280;11310;51.528;21.204;2024-02-21T08:01:43;100335.59;;;6.98;100.00
22283;BME280;11310;51.528;21.204;2024-02-21T08:04:17;100338.94;;;7.03;100.00
22283;BME280;11310;51.528;21.204;2024-02-21T08:06:51;100327.50;;;7.09;100.00
22283;BME280;11310;51.528;21.204;2024-02-21T08:09:21;100338.84;;;7.08;100.00
22283;BME280;11310;51.528;21.204;2024-02-21T08:11:50;100329.38;;;7.04;100.00
22283;BME280;11310;51.528;21.204;2024-02-21T08:14:20;100331.16;;;7.02;100.00
22283;BME280;11310;51.528;21.204;2024-02-21T08:16:59;100321.66;;;6.99;100.00
22283;BME280;11310;51.528;21.204;2024-02-21T08:19:30;100330.34;;;7.00;100.00
22283;BME280;11310;51.528;21.204;2024-02-21T08:21:59;100325.16;;;6.98;100.00
22283;BME280;11310;51.528;21.204;2024-02-21T08:24:28;100322.59;;;6.97;100.00
22283;BME280;11310;51.528;21.204;2024-02-21T08:26:58;100317.31;;;7.00;100.00
22283;BME280;11310;51.528;21.204;2024-02-21T08:29:27;100320.59;;;7.06;100.00
22283;BME280;11310;51.528;21.204;2024-02-21T08:31:56;100309.03;;;7.16;100.00
22283;BME280;11310;51.528;21.204;2024-02-21T08:34:27;100312.19;;;7.27;100.00
22283;BME280;11310;51.528;21.204;2024-02-21T08:37:02;100304.91;;;7.38;100.00
22283;BME280;11310;51.528;21.204;2024-02-21T08:39:31;100305.44;;;7.49;100.00
22283;BME280;11310;51.528;21.204;2024-02-21T08:42:00;100309.69;;;7.53;100.00
22283;BME280;11310;51.528;21.204;2024-02-21T08:44:29;100311.34;;;7.56;100.00
22283;BME280;11310;51.528;21.204;2024-02-21T08:47:00;100312.25;;;7.55;100.00
22283;BME280;11310;51.528;21.204;2024-02-21T08:49:34;100302.72;;;7.54;100.00
22283;BME280;11310;51.528;21.204;2024-02-21T08:52:08;100297.50;;;7.54;100.00
22283;BME280;11310;51.528;21.204;2024-02-21T08:54:36;100308.75;;;7.56;100.00
22283;BME280;11310;51.528;21.204;2024-02-21T08:57:05;100302.56;;;7.58;100.00
22283;BME280;11310;51.528;21.204;2024-02-21T08:59:34;100306.72;;;7.65;100.00
22283;BME280;11310;51.528;21.204;2024-02-21T09:02:03;100303.25;;;7.65;100.00
22283;BME280;11310;51.528;21.204;2024-02-21T09:04:32;100299.44;;;7.75;100.00
22283;BME280;11310;51.528;21.204;2024-02-21T09:07:01;100299.97;;;7.87;100.00
22283;BME280;11310;51.528;21.204;2024-02-21T09:09:34;100295.03;;;8.04;100.00
22283;BME280;11310;51.528;21.204;2024-02-21T09:12:04;100295.56;;;8.15;100.00
22283;BME280;11310;51.528;21.204;2024-02-21T09:14:35;100291.09;;;8.19;100.00
22283;BME280;11310;51.528;21.204;2024-02-21T09:17:04;100298.75;;;8.25;100.00
22283;BME280;11310;51.528;21.204;2024-02-21T09:19:34;100294.25;;;8.30;100.00
22283;BME280;11310;51.528;21.204;2024-02-21T09:22:06;100297.47;;;8.38;100.00
22283;BME280;11310;51.528;21.204;2024-02-21T09:24:37;100294.75;;;8.41;100.00
22283;BME280;11310;51.528;21.204;2024-02-21T09:27:09;100302.38;;;8.47;100.00
22283;BME280;11310;51.528;21.204;2024-02-21T09:29:40;100289.38;;;8.45;100.00
22283;BME280;11310;51.528;21.204;2024-02-21T09:32:12;100287.75;;;8.41;100.00
22283;BME280;11310;51.528;21.204;2024-02-21T09:34:43;100292.94;;;8.43;100.00
22283;BME280;11310;51.528;21.204;2024-02-21T09:37:13;100292.16;;;8.41;100.00
22283;BME280;11310;51.528;21.204;2024-02-21T09:39:46;100289.44;;;8.44;100.00
22283;BME280;11310;51.528;21.204;2024-02-21T09:42:18;100292.81;;;8.47;100.00
22283;BME280;11310;51.528;21.204;2024-02-21T09:44:50;100296.38;;;8.45;100.00
22283;BME280;11310;51.528;21.204;2024-02-21T09:47:30;100284.03;;;8.48;100.00
22283;BME280;11310;51.528;21.204;2024-02-21T09:50:03;100290.16;;;8.49;100.00
22283;BME280;11310;51.528;21.204;2024-02-21T09:52:37;100280.25;;;8.57;100.00
22283;BME280;11310;51.528;21.204;2024-02-21T09:55:12;100283.91;;;8.77;100.00
22283;BME280;11310;51.528;21.204;2024-02-21T09:57:44;100285.38;;;9.33;100.00
22283;BME280;11310;51.528;21.204;2024-02-21T10:00:16;100281.09;;;9.54;100.00
22283;BME280;11310;51.528;21.204;2024-02-21T10:02:49;100281.84;;;9.57;100.00
22283;BME280;11310;51.528;21.204;2024-02-21T10:05:19;100289.00;;;9.52;100.00
22283;BME280;11310;51.528;21.204;2024-02-21T10:07:48;100278.75;;;9.46;100.00
22283;BME280;11310;51.528;21.204;2024-02-21T10:10:21;100276.56;;;9.36;100.00
22283;BME280;11310;51.528;21.204;2024-02-21T10:12:53;100271.75;;;9.24;100.00
22283;BME280;11310;51.528;21.204;2024-02-21T10:15:24;100267.81;;;9.12;100.00
22283;BME280;11310;51.528;21.204;2024-02-21T10:18:00;100273.78;;;9.16;100.00
22283;BME280;11310;51.528;21.204;2024-02-21T10:20:31;100272.00;;;9.18;100.00
22283;BME280;11310;51.528;21.204;2024-02-21T10:23:03;100266.75;;;9.18;100.00
22283;BME280;11310;51.528;21.204;2024-02-21T10:25:37;100259.53;;;9.24;100.00
22283;BME280;11310;51.528;21.204;2024-02-21T10:28:12;100251.31;;;9.56;100.00
22283;BME280;11310;51.528;21.204;2024-02-21T10:30:50;100260.34;;;9.71;100.00
22283;BME280;11310;51.528;21.204;2024-02-21T10:33:20;100252.38;;;9.74;100.00
22283;BME280;11310;51.528;21.204;2024-02-21T10:36:06;100258.28;;;9.79;100.00
22283;BME280;11310;51.528;21.204;2024-02-21T10:38:37;100244.47;;;9.75;100.00
22283;BME280;11310;51.528;21.204;2024-02-21T10:41:10;100246.47;;;9.69;100.00
22283;BME280;11310;51.528;21.204;2024-02-21T10:43:41;100240.75;;;9.58;100.00
22283;BME280;11310;51.528;21.204;2024-02-21T10:46:15;100242.84;;;9.50;100.00
22283;BME280;11310;51.528;21.204;2024-02-21T10:49:01;100233.50;;;9.43;100.00
22283;BME280;11310;51.528;21.204;2024-02-21T10:51:33;100236.38;;;9.37;100.00
22283;BME280;11310;51.528;21.204;2024-02-21T10:54:24;100237.28;;;9.36;100.00
22283;BME280;11310;51.528;21.204;2024-02-21T10:57:03;100232.81;;;9.38;100.00
22283;BME280;11310;51.528;21.204;2024-02-21T10:59:34;100230.88;;;9.43;100.00
22283;BME280;11310;51.528;21.204;2024-02-21T11:02:05;100227.25;;;9.47;100.00
22283;BME280;11310;51.528;21.204;2024-02-21T11:04:36;100213.38;;;9.45;100.00
22283;BME280;11310;51.528;21.204;2024-02-21T11:07:09;100218.91;;;9.59;100.00
22283;BME280;11310;51.528;21.204;2024-02-21T11:09:37;100226.34;;;9.69;100.00
22283;BME280;11310;51.528;21.204;2024-02-21T11:12:08;100214.09;;;9.70;100.00
22283;BME280;11310;51.528;21.204;2024-02-21T11:14:39;100204.53;;;9.69;100.00
22283;BME280;11310;51.528;21.204;2024-02-21T11:17:15;100199.31;;;9.69;100.00
22283;BME280;11310;51.528;21.204;2024-02-21T11:19:47;100201.81;;;9.72;100.00
22283;BME280;11310;51.528;21.204;2024-02-21T11:22:19;100193.75;;;9.76;100.00
22283;BME280;11310;51.528;21.204;2024-02-21T11:24:52;100200.53;;;9.82;100.00
22283;BME280;11310;51.528;21.204;2024-02-21T11:27:23;100193.56;;;9.81;100.00
22283;BME280;11310;51.528;21.204;2024-02-21T11:29:54;100194.78;;;9.72;100.00
22283;BME280;11310;51.528;21.204;2024-02-21T11:32:25;100195.00;;;9.68;100.00
22283;BME280;11310;51.528;21.204;2024-02-21T11:34:55;100191.81;;;9.60;100.00
22283;BME280;11310;51.528;21.204;2024-02-21T11:37:25;100192.16;;;9.51;100.00
22283;BME280;11310;51.528;21.204;2024-02-21T11:39:55;100189.84;;;9.43;100.00
22283;BME280;11310;51.528;21.204;2024-02-21T11:42:27;100192.63;;;9.39;100.00
22283;BME280;11310;51.528;21.204;2024-02-21T11:44:57;100190.22;;;9.34;100.00
22283;BME280;11310;51.528;21.204;2024-02-21T11:47:29;100185.03;;;9.33;100.00
22283;BME280;11310;51.528;21.204;2024-02-21T11:49:58;100181.63;;;9.31;100.00
22283;BME280;11310;51.528;21.204;2024-02-21T11:52:27;100179.13;;;9.28;100.00
22283;BME280;11310;51.528;21.204;2024-02-21T11:54:56;100178.19;;;9.29;100.00
22283;BME280;11310;51.528;21.204;2024-02-21T11:57:37;100168.41;;;9.34;100.00
22283;BME280;11310;51.528;21.204;2024-02-21T12:00:13;100170.34;;;9.29;100.00
22283;BME280;11310;51.528;21.204;2024-02-21T12:02:44;100170.59;;;9.23;100.00
22283;BME280;11310;51.528;21.204;2024-02-21T12:05:13;100171.72;;;9.16;100.00
22283;BME280;11310;51.528;21.204;2024-02-21T12:07:42;100160.56;;;9.11;100.00
22283;BME280;11310;51.528;21.204;2024-02-21T12:10:12;100167.66;;;9.09;100.00
22283;BME280;11310;51.528;21.204;2024-02-21T12:12:43;100160.81;;;9.05;100.00
22283;BME280;11310;51.528;21.204;2024-02-21T12:15:11;100158.19;;;9.05;100.00
22283;BME280;11310;51.528;21.204;2024-02-21T12:17:53;100157.53;;;9.00;100.00
22283;BME280;11310;51.528;21.204;2024-02-21T12:20:22;100155.75;;;9.00;100.00
22283;BME280;11310;51.528;21.204;2024-02-21T12:22:50;100152.41;;;8.97;100.00
22283;BME280;11310;51.528;21.204;2024-02-21T12:25:23;100148.06;;;8.96;100.00
22283;BME280;11310;51.528;21.204;2024-02-21T12:27:58;100148.06;;;8.96;100.00
22283;BME280;11310;51.528;21.204;2024-02-21T12:30:28;100143.81;;;8.93;100.00
22283;BME280;11310;51.528;21.204;2024-02-21T12:33:00;100142.28;;;8.88;100.00
22283;BME280;11310;51.528;21.204;2024-02-21T12:35:29;100144.94;;;8.86;100.00
22283;BME280;11310;51.528;21.204;2024-02-21T12:38:00;100135.25;;;8.90;100.00
22283;BME280;11310;51.528;21.204;2024-02-21T12:40:30;100131.69;;;8.91;100.00
22283;BME280;11310;51.528;21.204;2024-02-21T12:43:01;100126.34;;;8.94;100.00
22283;BME280;11310;51.528;21.204;2024-02-21T12:45:33;100124.53;;;8.96;100.00
22283;BME280;11310;51.528;21.204;2024-02-21T12:48:02;100117.41;;;8.99;100.00
22283;BME280;11310;51.528;21.204;2024-02-21T12:50:31;100112.22;;;8.98;100.00
22283;BME280;11310;51.528;21.204;2024-02-21T12:53:01;100115.88;;;8.94;100.00
22283;BME280;11310;51.528;21.204;2024-02-21T12:55:32;100115.88;;;8.94;100.00
22283;BME280;11310;51.528;21.204;2024-02-21T12:58:04;100109.69;;;8.96;100.00